EmailTwitter


Surface observations / Quebec / CYUL (71627)

Regions: Quebec | Canada | USA | Europe | France | UK | Elsewhere
Station
Display
Info & Location for CYUL (71627) | Help decoding METAR

Weather Conditions observed on 2019/11/16 at 21:00 UTC at MONTREAL INTL A, QB (CYUL)

Sky conditions: clear.

Temperature: -6.0 Celsius.

Dewpoint: -14.0 Celsius.

Relative Humidity: 53%

Windchill Factor: -11.

Winds: Southwest at 11 km/h or 6 knots.

Mean Sea level Pressure: 103.65 kilopascals.

Altimeter Setting (QNH): 103.62 kilopascals or 30.60 inches of mercury.

Horizontal visibility: 30.00 statute miles or 48.00 kilometers.

Coded METAR:

CYUL 162100Z 24006KT 30SM SKC M06/M14 A3060 RMK SLP365=